Clarksville, AR (72830)

12:06 PM CDT on May 24, 2017 (GMT -0500)
The GRAPHIC(West Main) | | Change Station

Elev 410 ft 35.47 °N, 93.50 °W | Updated 12 seconds ago

Partly Cloudy
Partly Cloudy
64.8 °F
Feels Like 64.8 °F
N
16.1
Wind Variable Wind from NW
Gusts 16.1 mph

Today
High -- | Low -- °F
--% Chance of Precip.
Yesterday
High -- | Low -- °F
Precip. -- in
Pressure 29.66 in
Visibility 10.0 miles
Clouds Few 3600 ft
Few 5000 ft
Mostly Cloudy 9000 ft
Dew Point 47 °F
Humidity 52%
Rainfall 0.00 in
Snow Depth Not available.
6:03 AM 8:18 PM
Waning Crescent, 2% visible
METAR KRUE 241653Z AUTO 30011G17KT 10SM FEW036 FEW050 BKN090 18/09 A2968 RMK AO2 SLP043 T01830089
Pressure 29.66 in
Visibility 10.0 miles
Clouds Few 3600 ft
Few 5000 ft
Mostly Cloudy 9000 ft
Dew Point 47 °F
Humidity 52%
Rainfall 0.00 in
Snow Depth Not available.
6:03 AM 8:18 PM
Waning Crescent, 2% visible
METAR KRUE 241653Z AUTO 30011G17KT 10SM FEW036 FEW050 BKN090 18/09 A2968 RMK AO2 SLP043 T01830089

Get Severe Weather Alerts

Thanks for signing up!

Be on the lookout for a verification email in your inbox.

You'll start receiving the daily forecast at 6 AM.

×

10-Day Weather Forecast

Almanac

Astronomy

May. 24, 2017 Rise Set
Actual Time
Civil Twilight
Nautical Twilight
Astronomical Twilight
Moon
Length of Visible Light
Length of Day
Tomorrow will be .
, % of the Moon is Illuminated

Today's Extremes

State Highs State Lows

Community

WunderPhotos

Category 6

Welcome to Category 6. This is the collective home for Weather Underground's featured writeups by Dr. Jeff Masters (right), Bob Henson (left), Chris Burt, and other regular contributors.

Nearby

Air Quality

  Air Quality AQ Index Pollutant
Not available.

Snow Depth

Station Depth Elevation

Earthquake Activity

City Distance Mag. Time & Date
Minimum magnitude displayed is 2.5.

Coastal Water Temperatures

Place Temperature

Stations

Nearby Weather Stations

Station Location Temp. Windchill Dew Point Humidity Wind Precip. Elev Updated Type
                   

Watches & Warnings

There are currently no watches in effect.